Aviation Digital Data Service (ADDS)

Output produced by METARs form (2248 UTC 15 February 2019)
found at http://www.aviationweather.gov/metar/data/
 
METAR text: LDZA 152230Z 25003KT CAVOK M02/M03 Q1033 NOSIG
Conditions at: LDZA (ZAGREB/PLESO , HR) observed 2230 UTC 15 February 2019
Temperature: -2.0°C (28°F)
Dewpoint: -3.0°C (27°F) [RH = 93%]
Pressure (altimeter): 30.50 inches Hg (1033.0 mb)
Winds: from the WSW (250 degrees) at 3 MPH (3 knots; 1.5 m/s)
Visibility: 6 or more miles (10+ km)
Ceiling: ceiling and visibility are OK
Clouds: unknown
Weather: no significant weather observed at this time

METAR text: LDZA 152200Z 26003KT CAVOK M01/M02 Q1033 NOSIG
Conditions at: LDZA (ZAGREB/PLESO , HR) observed 2200 UTC 15 February 2019
Temperature: -1.0°C (30°F)
Dewpoint: -2.0°C (28°F) [RH = 93%]
Pressure (altimeter): 30.50 inches Hg (1033.0 mb)
Winds: from the W (260 degrees) at 3 MPH (3 knots; 1.5 m/s)
Visibility: 6 or more miles (10+ km)
Ceiling: ceiling and visibility are OK
Clouds: unknown
Weather: no significant weather observed at this time

METAR text: LDZA 152130Z VRB02KT CAVOK M01/M03 Q1034 NOSIG
Conditions at: LDZA (ZAGREB/PLESO , HR) observed 2130 UTC 15 February 2019
Temperature: -1.0°C (30°F)
Dewpoint: -3.0°C (27°F) [RH = 86%]
Pressure (altimeter): 30.53 inches Hg (1034.0 mb)
Winds: variable direction winds at 2 MPH (2 knots; 1.0 m/s)
Visibility: 6 or more miles (10+ km)
Ceiling: ceiling and visibility are OK
Clouds: unknown
Weather: no significant weather observed at this time

METAR text: LDZA 152100Z 23003KT CAVOK M00/M02 Q1034 NOSIG
Conditions at: LDZA (ZAGREB/PLESO , HR) observed 2100 UTC 15 February 2019
Temperature: 0.0°C (32°F)
Dewpoint: -2.0°C (28°F) [RH = 86%]
Pressure (altimeter): 30.53 inches Hg (1034.0 mb)
Winds: from the SW (230 degrees) at 3 MPH (3 knots; 1.5 m/s)
Visibility: 6 or more miles (10+ km)
Ceiling: ceiling and visibility are OK
Clouds: unknown
Weather: no significant weather observed at this time

METAR text: LDZA 152030Z 22003KT CAVOK 00/M02 Q1034 NOSIG
Conditions at: LDZA (ZAGREB/PLESO , HR) observed 2030 UTC 15 February 2019
Temperature: 0.0°C (32°F)
Dewpoint: -2.0°C (28°F) [RH = 86%]
Pressure (altimeter): 30.53 inches Hg (1034.0 mb)
Winds: from the SW (220 degrees) at 3 MPH (3 knots; 1.5 m/s)
Visibility: 6 or more miles (10+ km)
Ceiling: ceiling and visibility are OK
Clouds: unknown
Weather: no significant weather observed at this time

METAR text: LDZA 152000Z 00000KT CAVOK 01/M02 Q1034 NOSIG
Conditions at: LDZA (ZAGREB/PLESO , HR) observed 2000 UTC 15 February 2019
Temperature: 1.0°C (34°F)
Dewpoint: -2.0°C (28°F) [RH = 80%]
Pressure (altimeter): 30.53 inches Hg (1034.0 mb)
Winds: calm
Visibility: 6 or more miles (10+ km)
Ceiling: ceiling and visibility are OK
Clouds: unknown
Weather: no significant weather observed at this time

METAR text: LDZA 151930Z 34003KT CAVOK 02/M01 Q1034 NOSIG
Conditions at: LDZA (ZAGREB/PLESO , HR) observed 1930 UTC 15 February 2019
Temperature: 2.0°C (36°F)
Dewpoint: -1.0°C (30°F) [RH = 80%]
Pressure (altimeter): 30.53 inches Hg (1034.0 mb)
Winds: from the NNW (340 degrees) at 3 MPH (3 knots; 1.5 m/s)
Visibility: 6 or more miles (10+ km)
Ceiling: ceiling and visibility are OK
Clouds: unknown
Weather: no significant weather observed at this time

METAR text: LDZA 151900Z 00000KT CAVOK 01/M01 Q1034 NOSIG
Conditions at: LDZA (ZAGREB/PLESO , HR) observed 1900 UTC 15 February 2019
Temperature: 1.0°C (34°F)
Dewpoint: -1.0°C (30°F) [RH = 86%]
Pressure (altimeter): 30.53 inches Hg (1034.0 mb)
Winds: calm
Visibility: 6 or more miles (10+ km)
Ceiling: ceiling and visibility are OK
Clouds: unknown
Weather: no significant weather observed at this time

METAR text: LDZA 151830Z 00000KT CAVOK 02/M02 Q1034 NOSIG
Conditions at: LDZA (ZAGREB/PLESO , HR) observed 1830 UTC 15 February 2019
Temperature: 2.0°C (36°F)
Dewpoint: -2.0°C (28°F) [RH = 75%]
Pressure (altimeter): 30.53 inches Hg (1034.0 mb)
Winds: calm
Visibility: 6 or more miles (10+ km)
Ceiling: ceiling and visibility are OK
Clouds: unknown
Weather: no significant weather observed at this time

METAR text: LDZA 151800Z 00000KT CAVOK 03/M01 Q1034 NOSIG
Conditions at: LDZA (ZAGREB/PLESO , HR) observed 1800 UTC 15 February 2019
Temperature: 3.0°C (37°F)
Dewpoint: -1.0°C (30°F) [RH = 75%]
Pressure (altimeter): 30.53 inches Hg (1034.0 mb)
Winds: calm
Visibility: 6 or more miles (10+ km)
Ceiling: ceiling and visibility are OK
Clouds: unknown
Weather: no significant weather observed at this time

METAR text: LDZA 151730Z 00000KT CAVOK 05/M00 Q1034 NOSIG
Conditions at: LDZA (ZAGREB/PLESO , HR) observed 1730 UTC 15 February 2019
Temperature: 5.0°C (41°F)
Dewpoint: 0.0°C (32°F) [RH = 70%]
Pressure (altimeter): 30.53 inches Hg (1034.0 mb)
Winds: calm
Visibility: 6 or more miles (10+ km)
Ceiling: ceiling and visibility are OK
Clouds: unknown
Weather: no significant weather observed at this time

METAR text: LDZA 151700Z 00000KT CAVOK 06/M01 Q1033 NOSIG
Conditions at: LDZA (ZAGREB/PLESO , HR) observed 1700 UTC 15 February 2019
Temperature: 6.0°C (43°F)
Dewpoint: -1.0°C (30°F) [RH = 61%]
Pressure (altimeter): 30.50 inches Hg (1033.0 mb)
Winds: calm
Visibility: 6 or more miles (10+ km)
Ceiling: ceiling and visibility are OK
Clouds: unknown
Weather: no significant weather observed at this time

METAR text: LDZA 151630Z 07003KT CAVOK 08/00 Q1033 NOSIG
Conditions at: LDZA (ZAGREB/PLESO , HR) observed 1630 UTC 15 February 2019
Temperature: 8.0°C (46°F)
Dewpoint: 0.0°C (32°F) [RH = 57%]
Pressure (altimeter): 30.50 inches Hg (1033.0 mb)
Winds: from the ENE (70 degrees) at 3 MPH (3 knots; 1.5 m/s)
Visibility: 6 or more miles (10+ km)
Ceiling: ceiling and visibility are OK
Clouds: unknown
Weather: no significant weather observed at this time

METAR text: LDZA 151600Z 07003KT 020V100 CAVOK 09/00 Q1033 NOSIG
Conditions at: LDZA (ZAGREB/PLESO , HR) observed 1600 UTC 15 February 2019
Temperature: 9.0°C (48°F)
Dewpoint: 0.0°C (32°F) [RH = 53%]
Pressure (altimeter): 30.50 inches Hg (1033.0 mb)
Winds: from the ENE (70 degrees) at 3 MPH (3 knots; 1.5 m/s)
Visibility: 6 or more miles (10+ km)
Ceiling: ceiling and visibility are OK
Clouds: unknown
Weather: no significant weather observed at this time

METAR text: LDZA 151530Z 08003KT 030V140 CAVOK 10/00 Q1033 NOSIG
Conditions at: LDZA (ZAGREB/PLESO , HR) observed 1530 UTC 15 February 2019
Temperature: 10.0°C (50°F)
Dewpoint: 0.0°C (32°F) [RH = 50%]
Pressure (altimeter): 30.50 inches Hg (1033.0 mb)
Winds: from the E (80 degrees) at 3 MPH (3 knots; 1.5 m/s)
Visibility: 6 or more miles (10+ km)
Ceiling: ceiling and visibility are OK
Clouds: unknown
Weather: no significant weather observed at this time

METAR text: LDZA 151500Z 07003KT 010V140 CAVOK 10/00 Q1033 NOSIG
Conditions at: LDZA (ZAGREB/PLESO , HR) observed 1500 UTC 15 February 2019
Temperature: 10.0°C (50°F)
Dewpoint: 0.0°C (32°F) [RH = 50%]
Pressure (altimeter): 30.50 inches Hg (1033.0 mb)
Winds: from the ENE (70 degrees) at 3 MPH (3 knots; 1.5 m/s)
Visibility: 6 or more miles (10+ km)
Ceiling: ceiling and visibility are OK
Clouds: unknown
Weather: no significant weather observed at this time

METAR text: LDZA 151430Z 05006KT 360V110 9999 FEW040 10/00 Q1033 NOSIG
Conditions at: LDZA (ZAGREB/PLESO , HR) observed 1430 UTC 15 February 2019
Temperature: 10.0°C (50°F)
Dewpoint: 0.0°C (32°F) [RH = 50%]
Pressure (altimeter): 30.50 inches Hg (1033.0 mb)
Winds: from the NE (50 degrees) at 7 MPH (6 knots; 3.1 m/s)
Visibility: 6 or more miles (10+ km)
Ceiling: at least 12,000 feet AGL
Clouds: few clouds at 4000 feet AGL
Weather: no significant weather observed at this time

METAR text: LDZA 151400Z 05006KT 010V090 9999 FEW040 10/00 Q1033 NOSIG
Conditions at: LDZA (ZAGREB/PLESO , HR) observed 1400 UTC 15 February 2019
Temperature: 10.0°C (50°F)
Dewpoint: 0.0°C (32°F) [RH = 50%]
Pressure (altimeter): 30.50 inches Hg (1033.0 mb)
Winds: from the NE (50 degrees) at 7 MPH (6 knots; 3.1 m/s)
Visibility: 6 or more miles (10+ km)
Ceiling: at least 12,000 feet AGL
Clouds: few clouds at 4000 feet AGL
Weather: no significant weather observed at this time

METAR text: LDZA 151330Z 06007KT 020V120 9999 FEW045 10/00 Q1034 NOSIG
Conditions at: LDZA (ZAGREB/PLESO , HR) observed 1330 UTC 15 February 2019
Temperature: 10.0°C (50°F)
Dewpoint: 0.0°C (32°F) [RH = 50%]
Pressure (altimeter): 30.53 inches Hg (1034.0 mb)
Winds: from the ENE (60 degrees) at 8 MPH (7 knots; 3.6 m/s)
Visibility: 6 or more miles (10+ km)
Ceiling: at least 12,000 feet AGL
Clouds: few clouds at 4500 feet AGL
Weather: no significant weather observed at this time

METAR text: LDZA 151300Z 08009KT 020V130 9999 SCT043 10/00 Q1034 NOSIG
Conditions at: LDZA (ZAGREB/PLESO , HR) observed 1300 UTC 15 February 2019
Temperature: 10.0°C (50°F)
Dewpoint: 0.0°C (32°F) [RH = 50%]
Pressure (altimeter): 30.53 inches Hg (1034.0 mb)
Winds: from the E (80 degrees) at 10 MPH (9 knots; 4.6 m/s)
Visibility: 6 or more miles (10+ km)
Ceiling: at least 12,000 feet AGL
Clouds: scattered clouds at 4300 feet AGL
Weather: no significant weather observed at this time

METAR text: LDZA 151230Z 07008KT 030V110 9999 SCT043 09/01 Q1034 NOSIG
Conditions at: LDZA (ZAGREB/PLESO , HR) observed 1230 UTC 15 February 2019
Temperature: 9.0°C (48°F)
Dewpoint: 1.0°C (34°F) [RH = 57%]
Pressure (altimeter): 30.53 inches Hg (1034.0 mb)
Winds: from the ENE (70 degrees) at 9 MPH (8 knots; 4.1 m/s)
Visibility: 6 or more miles (10+ km)
Ceiling: at least 12,000 feet AGL
Clouds: scattered clouds at 4300 feet AGL
Weather: no significant weather observed at this time

METAR text: LDZA 151200Z 08007KT 020V160 9999 SCT041 10/01 Q1034 NOSIG
Conditions at: LDZA (ZAGREB/PLESO , HR) observed 1200 UTC 15 February 2019
Temperature: 10.0°C (50°F)
Dewpoint: 1.0°C (34°F) [RH = 53%]
Pressure (altimeter): 30.53 inches Hg (1034.0 mb)
Winds: from the E (80 degrees) at 8 MPH (7 knots; 3.6 m/s)
Visibility: 6 or more miles (10+ km)
Ceiling: at least 12,000 feet AGL
Clouds: scattered clouds at 4100 feet AGL
Weather: no significant weather observed at this time

METAR text: LDZA 151130Z 06008KT 020V110 9999 SCT037 09/02 Q1034 NOSIG
Conditions at: LDZA (ZAGREB/PLESO , HR) observed 1130 UTC 15 February 2019
Temperature: 9.0°C (48°F)
Dewpoint: 2.0°C (36°F) [RH = 61%]
Pressure (altimeter): 30.53 inches Hg (1034.0 mb)
Winds: from the ENE (60 degrees) at 9 MPH (8 knots; 4.1 m/s)
Visibility: 6 or more miles (10+ km)
Ceiling: at least 12,000 feet AGL
Clouds: scattered clouds at 3700 feet AGL
Weather: no significant weather observed at this time

METAR text: LDZA 151100Z 07009KT 010V120 9999 SCT035 08/02 Q1034 NOSIG
Conditions at: LDZA (ZAGREB/PLESO , HR) observed 1100 UTC 15 February 2019
Temperature: 8.0°C (46°F)
Dewpoint: 2.0°C (36°F) [RH = 66%]
Pressure (altimeter): 30.53 inches Hg (1034.0 mb)
Winds: from the ENE (70 degrees) at 10 MPH (9 knots; 4.6 m/s)
Visibility: 6 or more miles (10+ km)
Ceiling: at least 12,000 feet AGL
Clouds: scattered clouds at 3500 feet AGL
Weather: no significant weather observed at this time

METAR text: LDZA 151030Z 08006KT 030V120 9999 SCT033 08/01 Q1034 NOSIG
Conditions at: LDZA (ZAGREB/PLESO , HR) observed 1030 UTC 15 February 2019
Temperature: 8.0°C (46°F)
Dewpoint: 1.0°C (34°F) [RH = 61%]
Pressure (altimeter): 30.53 inches Hg (1034.0 mb)
Winds: from the E (80 degrees) at 7 MPH (6 knots; 3.1 m/s)
Visibility: 6 or more miles (10+ km)
Ceiling: at least 12,000 feet AGL
Clouds: scattered clouds at 3300 feet AGL
Weather: no significant weather observed at this time

METAR text: LDZA 151000Z 06010KT 020V120 9999 FEW033 09/01 Q1034 NOSIG
Conditions at: LDZA (ZAGREB/PLESO , HR) observed 1000 UTC 15 February 2019
Temperature: 9.0°C (48°F)
Dewpoint: 1.0°C (34°F) [RH = 57%]
Pressure (altimeter): 30.53 inches Hg (1034.0 mb)
Winds: from the ENE (60 degrees) at 12 MPH (10 knots; 5.1 m/s)
Visibility: 6 or more miles (10+ km)
Ceiling: at least 12,000 feet AGL
Clouds: few clouds at 3300 feet AGL
Weather: no significant weather observed at this time

METAR text: LDZA 150930Z 06006KT 020V110 9999 FEW035 09/01 Q1034 NOSIG
Conditions at: LDZA (ZAGREB/PLESO , HR) observed 0930 UTC 15 February 2019
Temperature: 9.0°C (48°F)
Dewpoint: 1.0°C (34°F) [RH = 57%]
Pressure (altimeter): 30.53 inches Hg (1034.0 mb)
Winds: from the ENE (60 degrees) at 7 MPH (6 knots; 3.1 m/s)
Visibility: 6 or more miles (10+ km)
Ceiling: at least 12,000 feet AGL
Clouds: few clouds at 3500 feet AGL
Weather: no significant weather observed at this time

METAR text: LDZA 150900Z 04004KT 350V100 9999 FEW032 07/01 Q1034 BECMG 05008KT
Conditions at: LDZA (ZAGREB/PLESO , HR) observed 0900 UTC 15 February 2019
Temperature: 7.0°C (45°F)
Dewpoint: 1.0°C (34°F) [RH = 66%]
Pressure (altimeter): 30.53 inches Hg (1034.0 mb)
Winds: from the NE (40 degrees) at 5 MPH (4 knots; 2.1 m/s)
Visibility: 6 or more miles (10+ km)
Ceiling: at least 12,000 feet AGL
Clouds: few clouds at 3200 feet AGL
Weather: no significant weather observed at this time

METAR text: LDZA 150830Z 00000KT CAVOK 05/02 Q1034 BECMG 05008KT
Conditions at: LDZA (ZAGREB/PLESO , HR) observed 0830 UTC 15 February 2019
Temperature: 5.0°C (41°F)
Dewpoint: 2.0°C (36°F) [RH = 81%]
Pressure (altimeter): 30.53 inches Hg (1034.0 mb)
Winds: calm
Visibility: 6 or more miles (10+ km)
Ceiling: ceiling and visibility are OK
Clouds: unknown
Weather: no significant weather observed at this time

METAR text: LDZA 150800Z 25003KT 210V270 CAVOK 03/00 Q1034 BECMG 05008KT
Conditions at: LDZA (ZAGREB/PLESO , HR) observed 0800 UTC 15 February 2019
Temperature: 3.0°C (37°F)
Dewpoint: 0.0°C (32°F) [RH = 81%]
Pressure (altimeter): 30.53 inches Hg (1034.0 mb)
Winds: from the WSW (250 degrees) at 3 MPH (3 knots; 1.5 m/s)
Visibility: 6 or more miles (10+ km)
Ceiling: ceiling and visibility are OK
Clouds: unknown
Weather: no significant weather observed at this time

METAR text: LDZA 150730Z 24004KT CAVOK 01/M01 Q1034 NOSIG
Conditions at: LDZA (ZAGREB/PLESO , HR) observed 0730 UTC 15 February 2019
Temperature: 1.0°C (34°F)
Dewpoint: -1.0°C (30°F) [RH = 86%]
Pressure (altimeter): 30.53 inches Hg (1034.0 mb)
Winds: from the WSW (240 degrees) at 5 MPH (4 knots; 2.1 m/s)
Visibility: 6 or more miles (10+ km)
Ceiling: ceiling and visibility are OK
Clouds: unknown
Weather: no significant weather observed at this time

METAR text: LDZA 150700Z 24005KT CAVOK 00/M01 Q1033 NOSIG
Conditions at: LDZA (ZAGREB/PLESO , HR) observed 0700 UTC 15 February 2019
Temperature: 0.0°C (32°F)
Dewpoint: -1.0°C (30°F) [RH = 93%]
Pressure (altimeter): 30.50 inches Hg (1033.0 mb)
Winds: from the WSW (240 degrees) at 6 MPH (5 knots; 2.6 m/s)
Visibility: 6 or more miles (10+ km)
Ceiling: ceiling and visibility are OK
Clouds: unknown
Weather: no significant weather observed at this time

METAR text: LDZA 150630Z 25005KT CAVOK M01/M02 Q1033 NOSIG
Conditions at: LDZA (ZAGREB/PLESO , HR) observed 0630 UTC 15 February 2019
Temperature: -1.0°C (30°F)
Dewpoint: -2.0°C (28°F) [RH = 93%]
Pressure (altimeter): 30.50 inches Hg (1033.0 mb)
Winds: from the WSW (250 degrees) at 6 MPH (5 knots; 2.6 m/s)
Visibility: 6 or more miles (10+ km)
Ceiling: ceiling and visibility are OK
Clouds: unknown
Weather: no significant weather observed at this time

METAR text: LDZA 150600Z 23004KT CAVOK M01/M03 Q1033 NOSIG
Conditions at: LDZA (ZAGREB/PLESO , HR) observed 0600 UTC 15 February 2019
Temperature: -1.0°C (30°F)
Dewpoint: -3.0°C (27°F) [RH = 86%]
Pressure (altimeter): 30.50 inches Hg (1033.0 mb)
Winds: from the SW (230 degrees) at 5 MPH (4 knots; 2.1 m/s)
Visibility: 6 or more miles (10+ km)
Ceiling: ceiling and visibility are OK
Clouds: unknown
Weather: no significant weather observed at this time

METAR text: LDZA 150530Z 23004KT CAVOK M01/M02 Q1033 NOSIG
Conditions at: LDZA (ZAGREB/PLESO , HR) observed 0530 UTC 15 February 2019
Temperature: -1.0°C (30°F)
Dewpoint: -2.0°C (28°F) [RH = 93%]
Pressure (altimeter): 30.50 inches Hg (1033.0 mb)
Winds: from the SW (230 degrees) at 5 MPH (4 knots; 2.1 m/s)
Visibility: 6 or more miles (10+ km)
Ceiling: ceiling and visibility are OK
Clouds: unknown
Weather: no significant weather observed at this time

METAR text: LDZA 150500Z 25004KT CAVOK M01/M02 Q1033 NOSIG
Conditions at: LDZA (ZAGREB/PLESO , HR) observed 0500 UTC 15 February 2019
Temperature: -1.0°C (30°F)
Dewpoint: -2.0°C (28°F) [RH = 93%]
Pressure (altimeter): 30.50 inches Hg (1033.0 mb)
Winds: from the WSW (250 degrees) at 5 MPH (4 knots; 2.1 m/s)
Visibility: 6 or more miles (10+ km)
Ceiling: ceiling and visibility are OK
Clouds: unknown
Weather: no significant weather observed at this time

METAR text: LDZA 150430Z 25005KT CAVOK M01/M03 Q1033 NOSIG
Conditions at: LDZA (ZAGREB/PLESO , HR) observed 0430 UTC 15 February 2019
Temperature: -1.0°C (30°F)
Dewpoint: -3.0°C (27°F) [RH = 86%]
Pressure (altimeter): 30.50 inches Hg (1033.0 mb)
Winds: from the WSW (250 degrees) at 6 MPH (5 knots; 2.6 m/s)
Visibility: 6 or more miles (10+ km)
Ceiling: ceiling and visibility are OK
Clouds: unknown
Weather: no significant weather observed at this time

METAR text: LDZA 150400Z 24005KT CAVOK M01/M03 Q1033 NOSIG
Conditions at: LDZA (ZAGREB/PLESO , HR) observed 0400 UTC 15 February 2019
Temperature: -1.0°C (30°F)
Dewpoint: -3.0°C (27°F) [RH = 86%]
Pressure (altimeter): 30.50 inches Hg (1033.0 mb)
Winds: from the WSW (240 degrees) at 6 MPH (5 knots; 2.6 m/s)
Visibility: 6 or more miles (10+ km)
Ceiling: ceiling and visibility are OK
Clouds: unknown
Weather: no significant weather observed at this time

METAR text: LDZA 150330Z 25004KT CAVOK M01/M02 Q1033 NOSIG
Conditions at: LDZA (ZAGREB/PLESO , HR) observed 0330 UTC 15 February 2019
Temperature: -1.0°C (30°F)
Dewpoint: -2.0°C (28°F) [RH = 93%]
Pressure (altimeter): 30.50 inches Hg (1033.0 mb)
Winds: from the WSW (250 degrees) at 5 MPH (4 knots; 2.1 m/s)
Visibility: 6 or more miles (10+ km)
Ceiling: ceiling and visibility are OK
Clouds: unknown
Weather: no significant weather observed at this time

METAR text: LDZA 150300Z 24004KT CAVOK M01/M02 Q1033 NOSIG
Conditions at: LDZA (ZAGREB/PLESO , HR) observed 0300 UTC 15 February 2019
Temperature: -1.0°C (30°F)
Dewpoint: -2.0°C (28°F) [RH = 93%]
Pressure (altimeter): 30.50 inches Hg (1033.0 mb)
Winds: from the WSW (240 degrees) at 5 MPH (4 knots; 2.1 m/s)
Visibility: 6 or more miles (10+ km)
Ceiling: ceiling and visibility are OK
Clouds: unknown
Weather: no significant weather observed at this time

METAR text: LDZA 150230Z 25003KT CAVOK M01/M02 Q1033 NOSIG
Conditions at: LDZA (ZAGREB/PLESO , HR) observed 0230 UTC 15 February 2019
Temperature: -1.0°C (30°F)
Dewpoint: -2.0°C (28°F) [RH = 93%]
Pressure (altimeter): 30.50 inches Hg (1033.0 mb)
Winds: from the WSW (250 degrees) at 3 MPH (3 knots; 1.5 m/s)
Visibility: 6 or more miles (10+ km)
Ceiling: ceiling and visibility are OK
Clouds: unknown
Weather: no significant weather observed at this time

METAR text: LDZA 150200Z 26004KT CAVOK M01/M02 Q1033 NOSIG
Conditions at: LDZA (ZAGREB/PLESO , HR) observed 0200 UTC 15 February 2019
Temperature: -1.0°C (30°F)
Dewpoint: -2.0°C (28°F) [RH = 93%]
Pressure (altimeter): 30.50 inches Hg (1033.0 mb)
Winds: from the W (260 degrees) at 5 MPH (4 knots; 2.1 m/s)
Visibility: 6 or more miles (10+ km)
Ceiling: ceiling and visibility are OK
Clouds: unknown
Weather: no significant weather observed at this time

METAR text: LDZA 150130Z 24005KT CAVOK M01/M02 Q1033 NOSIG
Conditions at: LDZA (ZAGREB/PLESO , HR) observed 0130 UTC 15 February 2019
Temperature: -1.0°C (30°F)
Dewpoint: -2.0°C (28°F) [RH = 93%]
Pressure (altimeter): 30.50 inches Hg (1033.0 mb)
Winds: from the WSW (240 degrees) at 6 MPH (5 knots; 2.6 m/s)
Visibility: 6 or more miles (10+ km)
Ceiling: ceiling and visibility are OK
Clouds: unknown
Weather: no significant weather observed at this time

METAR text: LDZA 150100Z VRB02KT CAVOK M01/M03 Q1033 NOSIG
Conditions at: LDZA (ZAGREB/PLESO , HR) observed 0100 UTC 15 February 2019
Temperature: -1.0°C (30°F)
Dewpoint: -3.0°C (27°F) [RH = 86%]
Pressure (altimeter): 30.50 inches Hg (1033.0 mb)
Winds: variable direction winds at 2 MPH (2 knots; 1.0 m/s)
Visibility: 6 or more miles (10+ km)
Ceiling: ceiling and visibility are OK
Clouds: unknown
Weather: no significant weather observed at this time

METAR text: LDZA 150030Z 26003KT CAVOK M01/M02 Q1034 NOSIG
Conditions at: LDZA (ZAGREB/PLESO , HR) observed 0030 UTC 15 February 2019
Temperature: -1.0°C (30°F)
Dewpoint: -2.0°C (28°F) [RH = 93%]
Pressure (altimeter): 30.53 inches Hg (1034.0 mb)
Winds: from the W (260 degrees) at 3 MPH (3 knots; 1.5 m/s)
Visibility: 6 or more miles (10+ km)
Ceiling: ceiling and visibility are OK
Clouds: unknown
Weather: no significant weather observed at this time

METAR text: LDZA 150000Z 00000KT CAVOK M00/M02 Q1034 NOSIG
Conditions at: LDZA (ZAGREB/PLESO , HR) observed 0000 UTC 15 February 2019
Temperature: 0.0°C (32°F)
Dewpoint: -2.0°C (28°F) [RH = 86%]
Pressure (altimeter): 30.53 inches Hg (1034.0 mb)
Winds: calm
Visibility: 6 or more miles (10+ km)
Ceiling: ceiling and visibility are OK
Clouds: unknown
Weather: no significant weather observed at this time

METAR text: LDZA 142330Z 00000KT CAVOK M00/M02 Q1034 NOSIG
Conditions at: LDZA (ZAGREB/PLESO , HR) observed 2330 UTC 14 February 2019
Temperature: 0.0°C (32°F)
Dewpoint: -2.0°C (28°F) [RH = 86%]
Pressure (altimeter): 30.53 inches Hg (1034.0 mb)
Winds: calm
Visibility: 6 or more miles (10+ km)
Ceiling: ceiling and visibility are OK
Clouds: unknown
Weather: no significant weather observed at this time

METAR text: LDZA 142300Z 25003KT CAVOK 00/M02 Q1033 NOSIG
Conditions at: LDZA (ZAGREB/PLESO , HR) observed 2300 UTC 14 February 2019
Temperature: 0.0°C (32°F)
Dewpoint: -2.0°C (28°F) [RH = 86%]
Pressure (altimeter): 30.50 inches Hg (1033.0 mb)
Winds: from the WSW (250 degrees) at 3 MPH (3 knots; 1.5 m/s)
Visibility: 6 or more miles (10+ km)
Ceiling: ceiling and visibility are OK
Clouds: unknown
Weather: no significant weather observed at this time

METAR text: LDZA 142230Z 23003KT CAVOK 00/M02 Q1033 NOSIG
Conditions at: LDZA (ZAGREB/PLESO , HR) observed 2230 UTC 14 February 2019
Temperature: 0.0°C (32°F)
Dewpoint: -2.0°C (28°F) [RH = 86%]
Pressure (altimeter): 30.50 inches Hg (1033.0 mb)
Winds: from the SW (230 degrees) at 3 MPH (3 knots; 1.5 m/s)
Visibility: 6 or more miles (10+ km)
Ceiling: ceiling and visibility are OK
Clouds: unknown
Weather: no significant weather observed at this time

METAR text: LDZA 142200Z 24003KT CAVOK 01/M01 Q1033 NOSIG
Conditions at: LDZA (ZAGREB/PLESO , HR) observed 2200 UTC 14 February 2019
Temperature: 1.0°C (34°F)
Dewpoint: -1.0°C (30°F) [RH = 86%]
Pressure (altimeter): 30.50 inches Hg (1033.0 mb)
Winds: from the WSW (240 degrees) at 3 MPH (3 knots; 1.5 m/s)
Visibility: 6 or more miles (10+ km)
Ceiling: ceiling and visibility are OK
Clouds: unknown
Weather: no significant weather observed at this time

METAR text: LDZA 142130Z 26004KT CAVOK 00/M02 Q1033 NOSIG
Conditions at: LDZA (ZAGREB/PLESO , HR) observed 2130 UTC 14 February 2019
Temperature: 0.0°C (32°F)
Dewpoint: -2.0°C (28°F) [RH = 86%]
Pressure (altimeter): 30.50 inches Hg (1033.0 mb)
Winds: from the W (260 degrees) at 5 MPH (4 knots; 2.1 m/s)
Visibility: 6 or more miles (10+ km)
Ceiling: ceiling and visibility are OK
Clouds: unknown
Weather: no significant weather observed at this time

METAR text: LDZA 142100Z 24004KT CAVOK 00/M02 Q1033 NOSIG
Conditions at: LDZA (ZAGREB/PLESO , HR) observed 2100 UTC 14 February 2019
Temperature: 0.0°C (32°F)
Dewpoint: -2.0°C (28°F) [RH = 86%]
Pressure (altimeter): 30.50 inches Hg (1033.0 mb)
Winds: from the WSW (240 degrees) at 5 MPH (4 knots; 2.1 m/s)
Visibility: 6 or more miles (10+ km)
Ceiling: ceiling and visibility are OK
Clouds: unknown
Weather: no significant weather observed at this time

METAR text: LDZA 142030Z 24004KT CAVOK 00/M02 Q1033 NOSIG
Conditions at: LDZA (ZAGREB/PLESO , HR) observed 2030 UTC 14 February 2019
Temperature: 0.0°C (32°F)
Dewpoint: -2.0°C (28°F) [RH = 86%]
Pressure (altimeter): 30.50 inches Hg (1033.0 mb)
Winds: from the WSW (240 degrees) at 5 MPH (4 knots; 2.1 m/s)
Visibility: 6 or more miles (10+ km)
Ceiling: ceiling and visibility are OK
Clouds: unknown
Weather: no significant weather observed at this time

METAR text: LDZA 142000Z VRB01KT CAVOK 02/M02 Q1034 NOSIG
Conditions at: LDZA (ZAGREB/PLESO , HR) observed 2000 UTC 14 February 2019
Temperature: 2.0°C (36°F)
Dewpoint: -2.0°C (28°F) [RH = 75%]
Pressure (altimeter): 30.53 inches Hg (1034.0 mb)
Winds: variable direction winds at 1 MPH (1 knots; 0.5 m/s)
Visibility: 6 or more miles (10+ km)
Ceiling: ceiling and visibility are OK
Clouds: unknown
Weather: no significant weather observed at this time

METAR text: LDZA 141930Z 04004KT CAVOK 03/M01 Q1034 NOSIG
Conditions at: LDZA (ZAGREB/PLESO , HR) observed 1930 UTC 14 February 2019
Temperature: 3.0°C (37°F)
Dewpoint: -1.0°C (30°F) [RH = 75%]
Pressure (altimeter): 30.53 inches Hg (1034.0 mb)
Winds: from the NE (40 degrees) at 5 MPH (4 knots; 2.1 m/s)
Visibility: 6 or more miles (10+ km)
Ceiling: ceiling and visibility are OK
Clouds: unknown
Weather: no significant weather observed at this time

METAR text: LDZA 141900Z 00000KT CAVOK 03/M01 Q1033 NOSIG
Conditions at: LDZA (ZAGREB/PLESO , HR) observed 1900 UTC 14 February 2019
Temperature: 3.0°C (37°F)
Dewpoint: -1.0°C (30°F) [RH = 75%]
Pressure (altimeter): 30.50 inches Hg (1033.0 mb)
Winds: calm
Visibility: 6 or more miles (10+ km)
Ceiling: ceiling and visibility are OK
Clouds: unknown
Weather: no significant weather observed at this time

METAR text: LDZA 141830Z VRB02KT CAVOK 04/M01 Q1034 NOSIG
Conditions at: LDZA (ZAGREB/PLESO , HR) observed 1830 UTC 14 February 2019
Temperature: 4.0°C (39°F)
Dewpoint: -1.0°C (30°F) [RH = 70%]
Pressure (altimeter): 30.53 inches Hg (1034.0 mb)
Winds: variable direction winds at 2 MPH (2 knots; 1.0 m/s)
Visibility: 6 or more miles (10+ km)
Ceiling: ceiling and visibility are OK
Clouds: unknown
Weather: no significant weather observed at this time

METAR text: LDZA 141800Z VRB01KT CAVOK 04/M02 Q1033 NOSIG
Conditions at: LDZA (ZAGREB/PLESO , HR) observed 1800 UTC 14 February 2019
Temperature: 4.0°C (39°F)
Dewpoint: -2.0°C (28°F) [RH = 65%]
Pressure (altimeter): 30.50 inches Hg (1033.0 mb)
Winds: variable direction winds at 1 MPH (1 knots; 0.5 m/s)
Visibility: 6 or more miles (10+ km)
Ceiling: ceiling and visibility are OK
Clouds: unknown
Weather: no significant weather observed at this time

METAR text: LDZA 141730Z VRB01KT CAVOK 06/M01 Q1033 NOSIG
Conditions at: LDZA (ZAGREB/PLESO , HR) observed 1730 UTC 14 February 2019
Temperature: 6.0°C (43°F)
Dewpoint: -1.0°C (30°F) [RH = 61%]
Pressure (altimeter): 30.50 inches Hg (1033.0 mb)
Winds: variable direction winds at 1 MPH (1 knots; 0.5 m/s)
Visibility: 6 or more miles (10+ km)
Ceiling: ceiling and visibility are OK
Clouds: unknown
Weather: no significant weather observed at this time

METAR text: LDZA 141700Z VRB01KT CAVOK 07/M01 Q1033 NOSIG
Conditions at: LDZA (ZAGREB/PLESO , HR) observed 1700 UTC 14 February 2019
Temperature: 7.0°C (45°F)
Dewpoint: -1.0°C (30°F) [RH = 57%]
Pressure (altimeter): 30.50 inches Hg (1033.0 mb)
Winds: variable direction winds at 1 MPH (1 knots; 0.5 m/s)
Visibility: 6 or more miles (10+ km)
Ceiling: ceiling and visibility are OK
Clouds: unknown
Weather: no significant weather observed at this time

METAR text: LDZA 141630Z VRB01KT CAVOK 08/M01 Q1033 NOSIG
Conditions at: LDZA (ZAGREB/PLESO , HR) observed 1630 UTC 14 February 2019
Temperature: 8.0°C (46°F)
Dewpoint: -1.0°C (30°F) [RH = 53%]
Pressure (altimeter): 30.50 inches Hg (1033.0 mb)
Winds: variable direction winds at 1 MPH (1 knots; 0.5 m/s)
Visibility: 6 or more miles (10+ km)
Ceiling: ceiling and visibility are OK
Clouds: unknown
Weather: no significant weather observed at this time

METAR text: LDZA 141600Z 00000KT CAVOK 10/M00 Q1033 NOSIG
Conditions at: LDZA (ZAGREB/PLESO , HR) observed 1600 UTC 14 February 2019
Temperature: 10.0°C (50°F)
Dewpoint: 0.0°C (32°F) [RH = 50%]
Pressure (altimeter): 30.50 inches Hg (1033.0 mb)
Winds: calm
Visibility: 6 or more miles (10+ km)
Ceiling: ceiling and visibility are OK
Clouds: unknown
Weather: no significant weather observed at this time

METAR text: LDZA 141530Z VRB02KT CAVOK 10/M01 Q1033 NOSIG
Conditions at: LDZA (ZAGREB/PLESO , HR) observed 1530 UTC 14 February 2019
Temperature: 10.0°C (50°F)
Dewpoint: -1.0°C (30°F) [RH = 46%]
Pressure (altimeter): 30.50 inches Hg (1033.0 mb)
Winds: variable direction winds at 2 MPH (2 knots; 1.0 m/s)
Visibility: 6 or more miles (10+ km)
Ceiling: ceiling and visibility are OK
Clouds: unknown
Weather: no significant weather observed at this time

METAR text: LDZA 141500Z 11003KT CAVOK 11/M01 Q1034 NOSIG
Conditions at: LDZA (ZAGREB/PLESO , HR) observed 1500 UTC 14 February 2019
Temperature: 11.0°C (52°F)
Dewpoint: -1.0°C (30°F) [RH = 43%]
Pressure (altimeter): 30.53 inches Hg (1034.0 mb)
Winds: from the ESE (110 degrees) at 3 MPH (3 knots; 1.5 m/s)
Visibility: 6 or more miles (10+ km)
Ceiling: ceiling and visibility are OK
Clouds: unknown
Weather: no significant weather observed at this time

METAR text: LDZA 141430Z 11003KT 030V160 CAVOK 12/M01 Q1034 NOSIG
Conditions at: LDZA (ZAGREB/PLESO , HR) observed 1430 UTC 14 February 2019
Temperature: 12.0°C (54°F)
Dewpoint: -1.0°C (30°F) [RH = 40%]
Pressure (altimeter): 30.53 inches Hg (1034.0 mb)
Winds: from the ESE (110 degrees) at 3 MPH (3 knots; 1.5 m/s)
Visibility: 6 or more miles (10+ km)
Ceiling: ceiling and visibility are OK
Clouds: unknown
Weather: no significant weather observed at this time

METAR text: LDZA 141400Z VRB01KT CAVOK 12/M01 Q1034 NOSIG
Conditions at: LDZA (ZAGREB/PLESO , HR) observed 1400 UTC 14 February 2019
Temperature: 12.0°C (54°F)
Dewpoint: -1.0°C (30°F) [RH = 40%]
Pressure (altimeter): 30.53 inches Hg (1034.0 mb)
Winds: variable direction winds at 1 MPH (1 knots; 0.5 m/s)
Visibility: 6 or more miles (10+ km)
Ceiling: ceiling and visibility are OK
Clouds: unknown
Weather: no significant weather observed at this time

METAR text: LDZA 141330Z VRB02KT CAVOK 13/M01 Q1034 NOSIG
Conditions at: LDZA (ZAGREB/PLESO , HR) observed 1330 UTC 14 February 2019
Temperature: 13.0°C (55°F)
Dewpoint: -1.0°C (30°F) [RH = 38%]
Pressure (altimeter): 30.53 inches Hg (1034.0 mb)
Winds: variable direction winds at 2 MPH (2 knots; 1.0 m/s)
Visibility: 6 or more miles (10+ km)
Ceiling: ceiling and visibility are OK
Clouds: unknown
Weather: no significant weather observed at this time

METAR text: LDZA 141300Z VRB02KT CAVOK 12/M01 Q1034 NOSIG
Conditions at: LDZA (ZAGREB/PLESO , HR) observed 1300 UTC 14 February 2019
Temperature: 12.0°C (54°F)
Dewpoint: -1.0°C (30°F) [RH = 40%]
Pressure (altimeter): 30.53 inches Hg (1034.0 mb)
Winds: variable direction winds at 2 MPH (2 knots; 1.0 m/s)
Visibility: 6 or more miles (10+ km)
Ceiling: ceiling and visibility are OK
Clouds: unknown
Weather: no significant weather observed at this time

METAR text: LDZA 141230Z VRB01KT CAVOK 11/M01 Q1034 NOSIG
Conditions at: LDZA (ZAGREB/PLESO , HR) observed 1230 UTC 14 February 2019
Temperature: 11.0°C (52°F)
Dewpoint: -1.0°C (30°F) [RH = 43%]
Pressure (altimeter): 30.53 inches Hg (1034.0 mb)
Winds: variable direction winds at 1 MPH (1 knots; 0.5 m/s)
Visibility: 6 or more miles (10+ km)
Ceiling: ceiling and visibility are OK
Clouds: unknown
Weather: no significant weather observed at this time

METAR text: LDZA 141200Z VRB01KT CAVOK 11/M01 Q1035 NOSIG
Conditions at: LDZA (ZAGREB/PLESO , HR) observed 1200 UTC 14 February 2019
Temperature: 11.0°C (52°F)
Dewpoint: -1.0°C (30°F) [RH = 43%]
Pressure (altimeter): 30.56 inches Hg (1035.0 mb)
Winds: variable direction winds at 1 MPH (1 knots; 0.5 m/s)
Visibility: 6 or more miles (10+ km)
Ceiling: ceiling and visibility are OK
Clouds: unknown
Weather: no significant weather observed at this time

METAR text: LDZA 141130Z VRB03KT CAVOK 10/M00 Q1035 NOSIG
Conditions at: LDZA (ZAGREB/PLESO , HR) observed 1130 UTC 14 February 2019
Temperature: 10.0°C (50°F)
Dewpoint: 0.0°C (32°F) [RH = 50%]
Pressure (altimeter): 30.56 inches Hg (1035.0 mb)
Winds: variable direction winds at 3 MPH (3 knots; 1.5 m/s)
Visibility: 6 or more miles (10+ km)
Ceiling: ceiling and visibility are OK
Clouds: unknown
Weather: no significant weather observed at this time

METAR text: LDZA 141100Z VRB02KT CAVOK 09/M00 Q1036 NOSIG
Conditions at: LDZA (ZAGREB/PLESO , HR) observed 1100 UTC 14 February 2019
Temperature: 9.0°C (48°F)
Dewpoint: 0.0°C (32°F) [RH = 53%]
Pressure (altimeter): 30.59 inches Hg (1036.0 mb)
Winds: variable direction winds at 2 MPH (2 knots; 1.0 m/s)
Visibility: 6 or more miles (10+ km)
Ceiling: ceiling and visibility are OK
Clouds: unknown
Weather: no significant weather observed at this time

Forecast for: LDZA (ZAGREB/PLESO , HR)
Text: TAF LDZA 151725Z 1518/1618 VRB02KT 9999 SCT035 TX10/1614Z TNM01/1605Z
Forecast period: 1800 UTC 15 February 2019 to 0000 UTC 16 February 2019
Forecast type: FROM: standard forecast or significant change
Winds: variable direction winds at 2 MPH (2 knots; 1.0 m/s)
Visibility: 6 or more miles 10+ km)
Ceiling: at least 12,000 feet AGL
Clouds: scattered clouds at 3500 feet AGL
Weather: no significant weather forecast for this period
Text: BECMG 1600/1602 3000 BR
Forecast period: 0000 to 0900 UTC 16 February 2019
Forecast type: BECOMING: Conditions expected to become as follows by 0200 UTC 16 February 2019
Winds: variable direction winds at 2 MPH (2 knots; 1.0 m/s)
Visibility: 1.86 miles (2.99 km)
Ceiling: at least 12,000 feet AGL
Clouds: scattered clouds at 3500 feet AGL
Weather: BR  (mist)
Text: PROB40 1602/1609 0200 FZFG VV001
Forecast period: 0200 to 0900 UTC 16 February 2019
Forecast type: PROBABLE: 40 percent likelihood of the following during this time
Visibility: 0.12 miles (0.19 km)
Ceiling: indefinite ceiling with vertical visibility of 100 feet AGL
Clouds: obscured sky
Weather: FZFG  (freezing fog)
Text: BECMG 1609/1611 CAVOK
Forecast period: 0900 to 1800 UTC 16 February 2019
Forecast type: BECOMING: Conditions expected to become as follows by 1100 UTC 16 February 2019
Winds: variable direction winds at 2 MPH (2 knots; 1.0 m/s)
Visibility: 6 or more miles 10+ km)
Ceiling: unknown
Clouds: missing
Weather: NSW  (no significant weather)